createdAt,value
2022-08-04T00:07:48.400Z,2.00
2022-08-04T00:13:04.359Z,2.13
2022-08-04T00:18:11.198Z,2.45
2022-08-04T00:23:16.152Z,2.28
2022-08-04T00:28:28.483Z,2.50
2022-08-04T00:33:43.535Z,2.22
2022-08-04T00:38:49.622Z,2.30
2022-08-04T00:44:08.195Z,2.72
2022-08-04T00:50:01.926Z,2.40
2022-08-04T00:55:19.170Z,2.63
2022-08-04T01:00:29.023Z,2.45
2022-08-04T01:05:41.199Z,2.40
2022-08-04T01:10:50.465Z,2.27
2022-08-04T01:16:21.899Z,2.42
2022-08-04T01:21:42.066Z,2.30
2022-08-04T01:27:09.726Z,2.50
2022-08-04T01:32:59.523Z,2.35
2022-08-04T01:38:47.119Z,2.67
2022-08-04T01:43:56.126Z,2.72
2022-08-04T01:49:07.561Z,2.35
2022-08-04T01:54:21.163Z,2.70
2022-08-04T01:59:39.503Z,2.78
2022-08-04T02:04:47.839Z,2.63
2022-08-04T02:10:05.443Z,3.05
2022-08-04T02:15:18.203Z,2.60
2022-08-04T02:20:27.155Z,2.78
2022-08-04T02:25:38.560Z,2.47
2022-08-04T02:30:49.268Z,2.60
2022-08-04T02:35:59.249Z,2.90
2022-08-04T02:41:07.869Z,2.95
2022-08-04T02:46:21.307Z,3.13
2022-08-04T02:51:33.479Z,2.50
2022-08-04T02:56:40.313Z,2.70
2022-08-04T03:01:57.884Z,2.50
2022-08-04T03:07:30.140Z,2.67
2022-08-04T03:12:58.848Z,2.97
2022-08-04T03:18:36.085Z,2.95
2022-08-04T03:24:06.563Z,2.90
2022-08-04T03:29:36.693Z,2.95
2022-08-04T03:35:04.378Z,2.83
2022-08-04T03:40:37.666Z,2.67
2022-08-04T03:51:53.531Z,3.40
2022-08-04T03:57:20.757Z,2.90
2022-08-04T04:02:47.264Z,2.80
2022-08-04T04:08:07.264Z,2.50
2022-08-04T04:13:31.419Z,3.08
2022-08-04T04:18:50.806Z,2.97
2022-08-04T04:24:10.160Z,2.80
2022-08-04T04:29:34.029Z,2.78
2022-08-04T04:34:49.601Z,2.95
2022-08-04T04:40:06.652Z,2.78
2022-08-04T04:45:42.988Z,2.83
2022-08-04T04:50:54.944Z,2.83
2022-08-04T04:56:09.352Z,2.58
2022-08-04T05:01:27.204Z,3.42
2022-08-04T05:06:45.321Z,3.10
2022-08-04T05:14:31.768Z,3.30
2022-08-04T05:17:55.585Z,3.40
2022-08-04T05:23:10.514Z,3.28
2022-08-04T05:28:33.410Z,3.22
2022-08-04T05:33:42.775Z,3.15
2022-08-04T05:39:13.637Z,3.15
2022-08-04T05:44:21.837Z,3.17
2022-08-04T05:49:38.014Z,2.97
2022-08-04T05:54:46.097Z,2.88
2022-08-04T05:59:53.856Z,3.05
2022-08-04T06:05:18.727Z,2.92
2022-08-04T06:10:27.288Z,3.33
2022-08-04T06:20:56.869Z,3.20
2022-08-04T06:32:27.251Z,2.88
2022-08-04T06:37:41.415Z,3.15
2022-08-04T06:42:45.670Z,3.75
2022-08-04T06:47:57.263Z,3.00
2022-08-04T06:53:18.599Z,3.03
2022-08-04T06:58:39.343Z,3.00
2022-08-04T07:03:54.421Z,3.42
2022-08-04T07:08:59.785Z,3.28
2022-08-04T07:14:21.438Z,3.30
2022-08-04T07:24:50.032Z,3.83
2022-08-04T07:30:00.939Z,3.08
2022-08-04T07:36:05.426Z,3.38
2022-08-04T07:46:46.214Z,3.60
2022-08-04T07:51:56.629Z,3.20
2022-08-04T07:57:03.774Z,3.67
2022-08-04T08:02:16.078Z,6.55
2022-08-04T08:07:28.476Z,3.72
2022-08-04T08:12:50.686Z,3.40
2022-08-04T08:18:08.376Z,3.10
2022-08-04T08:23:26.553Z,3.20
2022-08-04T08:28:32.500Z,3.97
2022-08-04T08:33:40.807Z,3.30
2022-08-04T08:38:55.927Z,3.03
2022-08-04T08:44:08.830Z,3.22
2022-08-04T08:50:01.706Z,3.00
2022-08-04T08:55:22.950Z,3.70
2022-08-04T09:00:32.293Z,2.95
2022-08-04T09:06:01.452Z,3.40
2022-08-04T09:11:16.327Z,3.47
2022-08-04T09:16:26.853Z,3.47
2022-08-04T09:21:45.153Z,3.35
2022-08-04T09:26:59.907Z,5.57
2022-08-04T09:32:25.027Z,4.10
2022-08-04T09:37:46.818Z,3.70
2022-08-04T09:43:17.560Z,3.65
2022-08-04T09:48:40.903Z,3.92
2022-08-04T09:53:53.318Z,4.20
2022-08-04T09:59:15.542Z,3.70
2022-08-04T10:04:30.357Z,3.83
2022-08-04T10:10:07.119Z,4.47
2022-08-04T10:15:24.478Z,4.43
2022-08-04T10:20:58.158Z,3.90
2022-08-04T10:26:20.104Z,4.10
2022-08-04T10:31:54.716Z,4.03
2022-08-04T10:37:14.316Z,3.83
2022-08-04T10:42:25.087Z,3.97
2022-08-04T10:47:58.859Z,3.75
2022-08-04T10:53:11.394Z,3.92
2022-08-04T10:58:23.397Z,4.10
2022-08-04T11:03:55.953Z,3.83
2022-08-04T11:09:14.911Z,4.00
2022-08-04T11:14:29.981Z,3.80
2022-08-04T11:19:44.811Z,3.78
2022-08-04T11:24:58.700Z,3.50
2022-08-04T11:30:08.784Z,3.55
2022-08-04T11:35:27.565Z,3.72
2022-08-04T11:40:36.530Z,3.20
2022-08-04T11:45:45.666Z,3.33
2022-08-04T11:50:57.669Z,3.15
2022-08-04T11:56:07.563Z,3.10
2022-08-04T12:01:22.909Z,3.10
2022-08-04T12:06:43.350Z,2.92
2022-08-04T12:12:05.600Z,2.80
2022-08-04T12:17:19.921Z,2.80
2022-08-04T12:22:31.558Z,2.70
2022-08-04T12:27:43.149Z,2.60
2022-08-04T12:33:02.353Z,2.85
2022-08-04T12:38:18.404Z,2.90
2022-08-04T12:43:31.051Z,2.50
2022-08-04T12:48:38.561Z,2.80
2022-08-04T12:53:57.720Z,2.90
2022-08-04T12:59:07.165Z,3.80
2022-08-04T13:04:22.397Z,2.60
2022-08-04T13:09:37.758Z,2.30
2022-08-04T13:14:48.415Z,2.20
2022-08-04T13:19:59.181Z,2.00
2022-08-04T13:25:18.164Z,2.35
2022-08-04T13:30:41.770Z,2.10
2022-08-04T13:35:55.201Z,2.20
2022-08-04T13:41:04.837Z,1.90
2022-08-04T13:46:27.046Z,1.90
2022-08-04T13:51:58.469Z,1.90
2022-08-04T13:57:15.880Z,1.90
2022-08-04T14:02:29.285Z,2.17
2022-08-04T14:07:36.641Z,2.38
2022-08-04T14:12:47.775Z,2.20
2022-08-04T14:17:56.416Z,2.10
2022-08-04T14:23:15.698Z,2.20
2022-08-04T14:29:09.468Z,2.03
2022-08-04T14:34:09.566Z,2.13
2022-08-04T14:50:27.867Z,2.30
2022-08-04T14:55:34.821Z,2.45
2022-08-04T15:00:38.779Z,2.22
2022-08-04T15:06:01.676Z,2.00
2022-08-04T15:16:54.092Z,2.35
2022-08-04T15:22:06.087Z,2.20
2022-08-04T15:27:13.911Z,2.05
2022-08-04T15:32:26.097Z,2.17
2022-08-04T15:37:33.837Z,2.30
2022-08-04T15:42:45.806Z,2.20
2022-08-04T15:48:39.214Z,2.10
2022-08-04T15:54:24.459Z,2.50
2022-08-04T16:00:03.704Z,2.15
2022-08-04T16:05:40.092Z,2.60
2022-08-04T16:10:52.982Z,2.00
2022-08-04T16:16:06.894Z,2.00
2022-08-04T16:21:20.637Z,2.10
2022-08-04T16:26:56.466Z,2.30
2022-08-04T16:32:27.683Z,1.90
2022-08-04T16:37:51.684Z,2.10
2022-08-04T16:43:19.711Z,2.20
2022-08-04T16:48:27.612Z,2.00
2022-08-04T16:53:53.802Z,2.20
2022-08-04T16:59:24.639Z,2.10
2022-08-04T17:04:37.108Z,1.90
2022-08-04T17:10:23.364Z,2.22
2022-08-04T17:15:35.847Z,2.28
2022-08-04T17:21:00.857Z,2.40
2022-08-04T17:26:09.240Z,5.05
2022-08-04T17:31:23.436Z,2.50
2022-08-04T17:36:28.363Z,3.42
2022-08-04T17:41:38.995Z,4.60
2022-08-04T17:46:57.673Z,3.60
2022-08-04T17:52:37.432Z,2.60
2022-08-04T17:57:57.245Z,2.75
2022-08-04T18:03:12.241Z,2.90
2022-08-04T18:13:49.168Z,2.45
2022-08-04T18:19:12.479Z,3.50
2022-08-04T18:24:33.880Z,3.25
2022-08-04T18:30:14.932Z,3.33
2022-08-04T18:35:22.923Z,2.80
2022-08-04T18:40:53.238Z,3.17
2022-08-04T18:46:03.936Z,4.10
2022-08-04T18:51:30.927Z,3.10
2022-08-04T18:57:24.409Z,3.05
2022-08-04T19:02:22.614Z,4.00
2022-08-04T19:07:35.589Z,4.45
2022-08-04T19:13:25.511Z,4.40
2022-08-04T19:18:56.625Z,3.90
2022-08-04T19:24:27.022Z,3.13
2022-08-04T19:29:56.212Z,3.40
2022-08-04T19:35:26.966Z,3.30
2022-08-04T19:40:52.509Z,3.35
2022-08-04T19:46:14.633Z,3.58
2022-08-04T19:51:34.096Z,3.60
2022-08-04T19:57:03.576Z,3.90
2022-08-04T20:02:29.386Z,4.22
2022-08-04T20:07:51.587Z,4.20
2022-08-04T20:13:10.430Z,4.65
2022-08-04T20:18:55.834Z,4.55
2022-08-04T20:24:37.045Z,4.47
2022-08-04T20:30:15.815Z,3.92
2022-08-04T20:35:27.883Z,4.38
2022-08-04T20:40:50.743Z,4.70
2022-08-04T20:51:43.509Z,4.45
2022-08-04T20:57:03.725Z,4.15
2022-08-04T21:02:16.207Z,4.05
2022-08-04T21:07:22.509Z,4.13
2022-08-04T21:12:34.420Z,3.92
2022-08-04T21:17:59.415Z,3.75
2022-08-04T21:29:17.315Z,3.85
2022-08-04T21:34:54.063Z,4.10
2022-08-04T21:40:14.263Z,4.18
2022-08-04T21:45:36.386Z,3.80
2022-08-04T21:50:58.694Z,3.88
2022-08-04T21:56:09.411Z,4.28
2022-08-04T22:01:51.665Z,4.65
2022-08-04T22:07:18.501Z,4.28
2022-08-04T22:18:04.396Z,4.40
2022-08-04T22:23:29.259Z,4.60
2022-08-04T22:28:33.220Z,4.15
2022-08-04T22:33:55.276Z,4.40
2022-08-04T22:39:13.200Z,4.60
2022-08-04T22:44:33.034Z,4.82
2022-08-04T22:49:56.511Z,5.20
2022-08-04T22:56:07.692Z,4.90
2022-08-04T23:01:07.894Z,4.68
2022-08-04T23:06:28.912Z,5.25
2022-08-04T23:11:44.203Z,4.87
2022-08-04T23:17:03.307Z,4.95
2022-08-04T23:22:19.642Z,4.50
2022-08-04T23:28:02.856Z,4.60
2022-08-04T23:33:11.258Z,4.05
2022-08-04T23:38:40.168Z,4.57
2022-08-04T23:43:55.702Z,4.57
2022-08-04T23:49:04.743Z,4.57
2022-08-04T23:54:23.460Z,4.03
2022-08-04T23:59:52.016Z,4.40
